Time;durP1;ratioP1;P1;durP2;ratioP2;P2;SDS_P1;SDS_P2;PMS_P1;PMS_P2;Temp;Humidity;BMP_temperature;BMP_pressure;BME280_temperature;BME280_humidity;BME280_pressure;Samples;Min_cycle;Max_cycle;Signal;HPM_P1;HPM_P2
2022/12/04 00:01:48;;;;;;;38.20;13.40;;;;;;;;;;6211921;23;20487;-92
2022/12/04 00:04:14;;;;;;;41.58;13.95;;;;;;;;;;6210427;23;20004;-92
2022/12/04 00:06:40;;;;;;;41.03;14.15;;;;;;;;;;6211935;23;20391;-92
2022/12/04 00:09:07;;;;;;;43.85;14.93;;;;;;;;;;6212234;23;20015;-92
2022/12/04 00:11:33;;;;;;;37.67;13.63;;;;;;;;;;6212705;23;20024;-92
2022/12/04 00:14:02;;;;;;;38.70;13.00;;;;;;;;;;6210893;23;20012;-92
2022/12/04 00:16:30;;;;;;;41.13;15.13;;;;;;;;;;6213044;23;20479;-92
2022/12/04 00:18:58;;;;;;;36.53;13.88;;;;;;;;;;6210689;23;20028;-92
2022/12/04 00:21:25;;;;;;;38.90;12.40;;;;;;;;;;6212170;23;20000;-91
2022/12/04 00:23:51;;;;;;;41.67;12.52;;;;;;;;;;6211577;23;20019;-90
2022/12/04 00:26:27;;;;;;;43.67;16.42;;;;;;;;;;6212403;23;20039;-91
2022/12/04 00:28:54;;;;;;;36.15;12.45;;;;;;;;;;6212366;22;20020;-91
2022/12/04 00:31:21;;;;;;;43.55;11.80;;;;;;;;;;6212802;23;20058;-91
2022/12/04 00:33:47;;;;;;;34.60;10.57;;;;;;;;;;6236158;23;20008;-92
2022/12/04 00:36:23;;;;;;;34.95;12.85;;;;;;;;;;6211483;23;20012;-91
2022/12/04 00:38:49;;;;;;;42.75;13.60;;;;;;;;;;6210538;23;20240;-92
2022/12/04 00:41:16;;;;;;;43.78;11.98;;;;;;;;;;6212268;23;20008;-92
2022/12/04 00:43:46;;;;;;;34.63;11.80;;;;;;;;;;6211549;23;20004;-92
2022/12/04 00:46:15;;;;;;;30.67;11.73;;;;;;;;;;6211478;23;20352;-91
2022/12/04 00:48:42;;;;;;;34.70;11.43;;;;;;;;;;6213304;23;20044;-91
2022/12/04 00:51:11;;;;;;;41.17;15.25;;;;;;;;;;6210491;23;20008;-92
2022/12/04 00:53:39;;;;;;;36.40;11.98;;;;;;;;;;6212999;23;20036;-91
2022/12/04 00:56:12;;;;;;;33.13;11.32;;;;;;;;;;6210281;23;20018;-91
2022/12/04 00:58:47;;;;;;;41.22;14.68;;;;;;;;;;6212407;23;20388;-90
2022/12/04 01:01:25;;;;;;;32.65;12.52;;;;;;;;;;6214248;23;20039;-91
2022/12/04 01:04:12;;;;;;;33.65;13.68;;;;;;;;;;6213461;23;20011;-92
2022/12/04 01:06:40;;;;;;;41.38;13.30;;;;;;;;;;6238742;23;20011;-90
2022/12/04 01:09:09;;;;;;;39.10;14.38;;;;;;;;;;6211590;23;20036;-91
2022/12/04 01:11:37;;;;;;;39.75;15.57;;;;;;;;;;6214187;23;20004;-92
2022/12/04 01:14:16;;;;;;;47.78;15.27;;;;;;;;;;6213529;23;20038;-91
2022/12/04 01:16:58;;;;;;;46.25;15.85;;;;;;;;;;6213365;23;20012;-93
2022/12/04 01:19:32;;;;;;;49.10;16.63;;;;;;;;;;6215540;23;20468;-91
2022/12/04 01:22:16;;;;;;;37.58;13.73;;;;;;;;;;6213447;23;20008;-92
2022/12/04 01:24:48;;;;;;;42.70;14.85;;;;;;;;;;6216508;23;20373;-91
2022/12/04 01:27:14;;;;;;;44.00;17.17;;;;;;;;;;6211675;23;20326;-91
2022/12/04 01:29:45;;;;;;;43.17;13.50;;;;;;;;;;6214485;22;20058;-93
2022/12/04 01:35:05;;;;;;;46.97;14.85;;;;;;;;;;6234244;23;20011;-91
2022/12/04 01:37:40;;;;;;;56.75;17.38;;;;;;;;;;6210694;23;20643;-91
2022/12/04 01:40:28;;;;;;;40.67;13.48;;;;;;;;;;6212299;23;20000;-91
2022/12/04 01:43:00;;;;;;;52.42;15.45;;;;;;;;;;6238895;23;20396;-92
2022/12/04 01:45:59;;;;;;;;;;;;;;;;;;;;;
2022/12/04 01:48:39;;;;;;;42.53;15.23;;;;;;;;;;6238715;23;20095;-91
2022/12/04 01:51:10;;;;;;;45.25;16.83;;;;;;;;;;6213825;23;20008;-91
2022/12/04 01:53:46;;;;;;;53.25;16.48;;;;;;;;;;6212624;23;20375;-92
2022/12/04 01:56:16;;;;;;;48.38;14.02;;;;;;;;;;6211861;23;20019;-92
2022/12/04 01:59:02;;;;;;;;;;;;;;;;;;;;;
2022/12/04 02:01:41;;;;;;;53.60;14.75;;;;;;;;;;6240436;23;20083;-92
2022/12/04 02:04:23;;;;;;;48.88;14.60;;;;;;;;;;6212233;23;20008;-91
2022/12/04 02:06:52;;;;;;;50.30;16.98;;;;;;;;;;6174535;23;20005;-91
2022/12/04 02:09:22;;;;;;;44.42;14.88;;;;;;;;;;6152638;23;20500;-92
2022/12/04 02:12:09;;;;;;;42.15;14.00;;;;;;;;;;6125912;23;20063;-92
2022/12/04 02:14:53;;;;;;;43.55;14.85;;;;;;;;;;6151777;23;20047;-91
2022/12/04 02:17:49;;;;;;;45.10;16.17;;;;;;;;;;6150655;23;20023;-91
2022/12/04 02:20:27;;;;;;;43.67;15.77;;;;;;;;;;6150389;23;20005;-91
2022/12/04 02:22:53;;;;;;;46.53;16.17;;;;;;;;;;6151428;23;20013;-91
2022/12/04 02:25:26;;;;;;;41.53;13.38;;;;;;;;;;6150544;23;20005;-91
2022/12/04 02:28:13;;;;;;;40.42;12.40;;;;;;;;;;6152266;23;20009;-91
2022/12/04 02:30:48;;;;;;;49.47;17.95;;;;;;;;;;6132883;23;20035;-92
2022/12/04 02:33:23;;;;;;;44.20;14.80;;;;;;;;;;6182268;23;20005;-91
2022/12/04 02:36:02;;;;;;;52.20;17.45;;;;;;;;;;6181865;23;20012;-92
2022/12/04 02:38:50;;;;;;;40.17;13.23;;;;;;;;;;6208303;23;20005;-92
2022/12/04 02:41:25;;;;;;;46.10;15.00;;;;;;;;;;6182555;23;20029;-90
2022/12/04 02:44:00;;;;;;;54.63;17.95;;;;;;;;;;6181767;23;20475;-92
2022/12/04 02:46:30;;;;;;;61.15;17.98;;;;;;;;;;6180952;23;20433;-92
2022/12/04 02:49:03;;;;;;;45.40;16.67;;;;;;;;;;6182234;23;20008;-91
2022/12/04 02:51:31;;;;;;;67.30;20.80;;;;;;;;;;6182537;23;20013;-91
2022/12/04 02:54:07;;;;;;;50.20;16.00;;;;;;;;;;6182238;23;20020;-91
2022/12/04 02:56:38;;;;;;;54.38;19.90;;;;;;;;;;6183121;23;20023;-92
2022/12/04 02:59:07;;;;;;;50.97;16.98;;;;;;;;;;6180651;23;20012;-92
2022/12/04 03:01:38;;;;;;;51.65;19.10;;;;;;;;;;6182118;23;20508;-91
2022/12/04 03:04:20;;;;;;;53.60;17.92;;;;;;;;;;6182177;23;20014;-91
2022/12/04 03:06:56;;;;;;;55.78;18.17;;;;;;;;;;6206795;23;20004;-91
2022/12/04 03:09:47;;;;;;;58.35;18.67;;;;;;;;;;6182370;23;20008;-92
2022/12/04 03:12:21;;;;;;;52.25;18.00;;;;;;;;;;6181496;23;20019;-91
2022/12/04 03:15:10;;;;;;;63.55;20.98;;;;;;;;;;6182274;23;20457;-92
2022/12/04 03:17:38;;;;;;;66.65;20.17;;;;;;;;;;6181939;23;20396;-92
2022/12/04 03:20:10;;;;;;;53.42;20.35;;;;;;;;;;6182620;23;20329;-93
2022/12/04 03:22:39;;;;;;;60.30;20.30;;;;;;;;;;6182174;23;20004;-92
2022/12/04 03:25:09;;;;;;;55.90;20.02;;;;;;;;;;6183148;23;20005;-91
2022/12/04 03:27:44;;;;;;;58.33;16.92;;;;;;;;;;6206640;23;20070;-91
2022/12/04 03:30:18;;;;;;;64.38;22.40;;;;;;;;;;6211083;22;20024;-92
2022/12/04 03:33:07;;;;;;;63.45;20.65;;;;;;;;;;6207018;23;20015;-91
2022/12/04 03:35:39;;;;;;;67.43;22.40;;;;;;;;;;6212470;23;20349;-92
2022/12/04 03:38:16;;;;;;;65.97;20.70;;;;;;;;;;6211845;23;20344;-91
2022/12/04 03:41:03;;;;;;;60.60;21.38;;;;;;;;;;6211049;23;20437;-91
2022/12/04 03:43:32;;;;;;;56.35;18.98;;;;;;;;;;6212231;23;20000;-92
2022/12/04 03:46:11;;;;;;;55.38;19.10;;;;;;;;;;6210682;23;20310;-91
2022/12/04 03:48:37;;;;;;;57.42;19.05;;;;;;;;;;6210731;23;20008;-91
2022/12/04 03:51:06;;;;;;;62.40;21.98;;;;;;;;;;6210434;23;20345;-91
2022/12/04 03:53:42;;;;;;;69.20;22.00;;;;;;;;;;6212478;23;20474;-91
2022/12/04 03:56:08;;;;;;;;;;;;;;;;;;6212205;23;20042;-91
2022/12/04 03:58:34;;;;;;;45.20;16.75;;;;;;;;;;6209757;23;19903;-92
2022/12/04 04:01:02;;;;;;;57.20;19.45;;;;;;;;;;6211747;23;20004;-92
2022/12/04 04:03:35;;;;;;;49.63;18.73;;;;;;;;;;6211952;23;20352;-91
2022/12/04 04:06:05;;;;;;;73.30;22.88;;;;;;;;;;6210282;23;20693;-92
2022/12/04 04:08:34;;;;;;;63.55;22.05;;;;;;;;;;6211572;23;20047;-92
2022/12/04 04:11:10;;;;;;;55.08;21.13;;;;;;;;;;6212434;23;20008;-91
2022/12/04 04:24:53;;;;;;;64.45;22.08;;;;;;;;;;6239421;23;20046;-93
2022/12/04 04:27:19;;;;;;;64.10;22.73;;;;;;;;;;6212420;23;20053;-90
2022/12/04 04:29:45;;;;;;;63.47;22.02;;;;;;;;;;6214049;22;20353;-91
2022/12/04 04:32:14;;;;;;;57.75;21.20;;;;;;;;;;6211923;23;20143;-91
2022/12/04 04:34:56;;;;;;;77.47;22.00;;;;;;;;;;6213324;23;20032;-92
2022/12/04 04:37:51;;;;;;;64.28;21.15;;;;;;;;;;6239658;23;20452;-92
2022/12/04 04:40:26;;;;;;;67.13;20.73;;;;;;;;;;6213054;23;20439;-91
2022/12/04 04:43:09;;;;;;;65.60;24.52;;;;;;;;;;6214809;23;20007;-91
2022/12/04 04:45:50;;;;;;;66.88;21.73;;;;;;;;;;6214077;23;20412;-91
2022/12/04 04:48:28;;;;;;;52.03;18.48;;;;;;;;;;6213460;23;20027;-93
2022/12/04 04:50:55;;;;;;;60.80;21.33;;;;;;;;;;6214527;23;20090;-91
2022/12/04 04:53:25;;;;;;;59.65;21.10;;;;;;;;;;6213199;23;20046;-91
2022/12/04 04:55:52;;;;;;;75.55;22.77;;;;;;;;;;6214159;23;20008;-92
2022/12/04 04:58:20;;;;;;;66.43;24.17;;;;;;;;;;6213720;23;20008;-91
2022/12/04 05:01:07;;;;;;;63.58;22.42;;;;;;;;;;6214271;23;20432;-91
2022/12/04 05:03:34;;;;;;;61.55;19.40;;;;;;;;;;6214845;23;20012;-91
2022/12/04 05:06:00;;;;;;;65.65;21.35;;;;;;;;;;6212269;23;20429;-91
2022/12/04 05:08:26;;;;;;;66.65;22.48;;;;;;;;;;6212993;23;20016;-91
2022/12/04 05:10:53;;;;;;;55.47;17.67;;;;;;;;;;6213268;23;20491;-91
2022/12/04 05:13:19;;;;;;;45.03;15.75;;;;;;;;;;6212991;23;20090;-92
2022/12/04 05:15:55;;;;;;;43.67;15.35;;;;;;;;;;6213047;23;20011;-91
2022/12/04 05:18:21;;;;;;;69.20;21.35;;;;;;;;;;6213914;23;20337;-91
2022/12/04 05:20:47;;;;;;;55.50;20.73;;;;;;;;;;6212738;23;20091;-91
2022/12/04 05:23:13;;;;;;;61.85;22.88;;;;;;;;;;6213197;23;20012;-91
2022/12/04 05:25:39;;;;;;;60.15;22.17;;;;;;;;;;6213572;23;20011;-92
2022/12/04 05:28:05;;;;;;;63.67;19.52;;;;;;;;;;6213930;23;20047;-92
2022/12/04 05:30:31;;;;;;;60.53;20.67;;;;;;;;;;6214572;22;20035;-91
2022/12/04 05:32:57;;;;;;;55.30;20.00;;;;;;;;;;6212602;23;20014;-92
2022/12/04 05:35:24;;;;;;;55.30;21.20;;;;;;;;;;6212557;23;20020;-91
2022/12/04 05:37:50;;;;;;;62.45;22.83;;;;;;;;;;6212854;23;20074;-91
2022/12/04 05:40:16;;;;;;;63.20;22.35;;;;;;;;;;6212458;23;20091;-91
2022/12/04 05:42:45;;;;;;;66.20;20.65;;;;;;;;;;6212559;23;20004;-91
2022/12/04 05:45:11;;;;;;;72.55;22.80;;;;;;;;;;6212034;23;20054;-90
2022/12/04 05:47:46;;;;;;;63.30;20.80;;;;;;;;;;6212512;23;20004;-90
2022/12/04 05:50:15;;;;;;;59.83;19.70;;;;;;;;;;6211777;23;20016;-91
2022/12/04 05:52:41;;;;;;;70.32;24.45;;;;;;;;;;6213725;23;20008;-91
2022/12/04 05:55:07;;;;;;;66.85;22.33;;;;;;;;;;6212294;23;20031;-91
2022/12/04 05:57:33;;;;;;;71.43;23.98;;;;;;;;;;6211827;23;20024;-91
2022/12/04 05:59:59;;;;;;;59.58;21.15;;;;;;;;;;6213284;23;20051;-91
2022/12/04 06:02:25;;;;;;;65.43;24.15;;;;;;;;;;6212554;23;20066;-91
2022/12/04 06:04:51;;;;;;;53.47;19.25;;;;;;;;;;6212286;23;20008;-92
2022/12/04 06:07:17;;;;;;;59.75;21.10;;;;;;;;;;6214054;23;20012;-90
2022/12/04 06:09:48;;;;;;;66.85;21.52;;;;;;;;;;6212774;23;20008;-91
2022/12/04 06:12:16;;;;;;;63.33;21.52;;;;;;;;;;6212740;23;20005;-93
2022/12/04 06:14:42;;;;;;;58.20;19.60;;;;;;;;;;6213425;23;20055;-92
2022/12/04 06:17:09;;;;;;;56.53;20.05;;;;;;;;;;6212359;23;20008;-90
2022/12/04 06:19:37;;;;;;;63.55;21.33;;;;;;;;;;6212994;23;20008;-93
2022/12/04 06:22:14;;;;;;;;;;;;;;;;;;;;;
2022/12/04 06:24:40;;;;;;;66.03;24.23;;;;;;;;;;6240673;23;20150;-92
2022/12/04 06:27:06;;;;;;;63.47;22.80;;;;;;;;;;6213397;23;20035;-92
2022/12/04 06:29:33;;;;;;;62.15;21.20;;;;;;;;;;6212833;22;20103;-92
2022/12/04 06:32:02;;;;;;;55.97;19.60;;;;;;;;;;6213915;23;20016;-92
2022/12/04 06:34:28;;;;;;;65.43;21.52;;;;;;;;;;6212091;23;20008;-91
2022/12/04 06:36:54;;;;;;;57.28;21.10;;;;;;;;;;6213911;23;20008;-91
2022/12/04 06:39:20;;;;;;;63.97;21.70;;;;;;;;;;6212355;23;20015;-92
2022/12/04 06:41:49;;;;;;;62.90;21.33;;;;;;;;;;6213006;23;20000;-91
2022/12/04 06:44:17;;;;;;;66.03;23.98;;;;;;;;;;6212507;23;20000;-92
2022/12/04 06:46:44;;;;;;;53.10;19.60;;;;;;;;;;6212394;23;20004;-91
2022/12/04 06:49:10;;;;;;;59.05;20.20;;;;;;;;;;6212916;23;20018;-91
2022/12/04 06:51:39;;;;;;;59.45;21.25;;;;;;;;;;6212954;23;20062;-91
2022/12/04 06:54:06;;;;;;;63.78;21.75;;;;;;;;;;6239943;23;20315;-91
2022/12/04 06:56:33;;;;;;;60.70;21.05;;;;;;;;;;6212146;23;20012;-91
2022/12/04 06:59:00;;;;;;;68.85;21.73;;;;;;;;;;6210601;23;20012;-91
2022/12/04 07:01:28;;;;;;;65.35;22.02;;;;;;;;;;6211822;23;20015;-93
2022/12/04 07:03:55;;;;;;;68.13;21.83;;;;;;;;;;6213206;23;20010;-91
2022/12/04 07:06:25;;;;;;;60.13;22.63;;;;;;;;;;6211134;23;20011;-91
2022/12/04 07:08:55;;;;;;;67.32;22.60;;;;;;;;;;6213385;23;20016;-90
2022/12/04 07:11:21;;;;;;;56.85;20.40;;;;;;;;;;6211923;23;20429;-91
2022/12/04 07:13:48;;;;;;;65.10;21.75;;;;;;;;;;6213368;23;20012;-91
2022/12/04 07:16:15;;;;;;;65.03;22.40;;;;;;;;;;6211577;23;20310;-91
2022/12/04 07:18:42;;;;;;;71.18;24.25;;;;;;;;;;6212251;23;20011;-91
2022/12/04 07:21:11;;;;;;;65.93;24.25;;;;;;;;;;6211156;23;20012;-91
2022/12/04 07:23:37;;;;;;;71.85;23.33;;;;;;;;;;6211686;23;20333;-91
2022/12/04 07:26:13;;;;;;;72.60;25.48;;;;;;;;;;6211918;23;20012;-92
2022/12/04 07:28:40;;;;;;;65.22;23.27;;;;;;;;;;6212490;22;20408;-92
2022/12/04 07:31:08;;;;;;;70.32;23.40;;;;;;;;;;6212685;23;20482;-91
2022/12/04 07:33:34;;;;;;;58.58;21.85;;;;;;;;;;6212500;23;20018;-91
2022/12/04 07:36:06;;;;;;;63.97;24.15;;;;;;;;;;6211003;23;20023;-91
2022/12/04 07:38:33;;;;;;;60.80;21.92;;;;;;;;;;6214811;23;20008;-91
2022/12/04 07:41:00;;;;;;;64.80;20.95;;;;;;;;;;6210890;23;20433;-91
2022/12/04 07:43:29;;;;;;;59.92;22.08;;;;;;;;;;6211704;23;20379;-91
2022/12/04 07:45:55;;;;;;;66.80;22.67;;;;;;;;;;6212458;23;20328;-90
2022/12/04 07:48:24;;;;;;;60.83;22.48;;;;;;;;;;6212248;23;20384;-91
2022/12/04 07:50:50;;;;;;;59.92;21.30;;;;;;;;;;6209802;23;20449;-91
2022/12/04 07:53:16;;;;;;;61.40;21.80;;;;;;;;;;6212327;23;20441;-91
2022/12/04 07:55:45;;;;;;;63.15;18.65;;;;;;;;;;6211143;23;20441;-92
2022/12/04 07:58:14;;;;;;;67.22;22.77;;;;;;;;;;6210364;23;20016;-91
2022/12/04 08:00:40;;;;;;;62.92;22.17;;;;;;;;;;6210804;23;20008;-91
2022/12/04 08:03:08;;;;;;;64.65;23.20;;;;;;;;;;6212093;23;20091;-90
2022/12/04 08:05:34;;;;;;;76.25;25.58;;;;;;;;;;6208524;23;20008;-91
2022/12/04 08:08:03;;;;;;;68.90;23.38;;;;;;;;;;6210201;23;20467;-90
2022/12/04 08:10:29;;;;;;;64.68;22.42;;;;;;;;;;6212379;23;20012;-92
2022/12/04 08:12:55;;;;;;;65.80;22.55;;;;;;;;;;6210951;23;20334;-92
2022/12/04 08:15:21;;;;;;;65.20;23.35;;;;;;;;;;6211469;23;20058;-91
2022/12/04 08:17:48;;;;;;;75.10;22.88;;;;;;;;;;6211058;23;20043;-92
2022/12/04 08:20:21;;;;;;;63.03;23.38;;;;;;;;;;6210029;23;20306;-91
2022/12/04 08:22:47;;;;;;;77.55;25.48;;;;;;;;;;6212219;23;20016;-91
2022/12/04 08:25:13;;;;;;;67.30;23.63;;;;;;;;;;6211398;23;20015;-91
2022/12/04 08:27:45;;;;;;;65.20;22.60;;;;;;;;;;6212474;23;20024;-91
2022/12/04 08:30:18;;;;;;;63.83;22.98;;;;;;;;;;6211811;22;20027;-91
2022/12/04 08:32:44;;;;;;;62.53;21.88;;;;;;;;;;6212586;23;20027;-91
2022/12/04 08:35:13;;;;;;;64.20;20.95;;;;;;;;;;6209760;23;20035;-92
2022/12/04 08:37:45;;;;;;;62.55;24.05;;;;;;;;;;6210757;23;20343;-92
2022/12/04 08:40:12;;;;;;;66.05;22.90;;;;;;;;;;6211790;23;20015;-92
2022/12/04 08:42:38;;;;;;;65.88;22.33;;;;;;;;;;6212042;23;20004;-92
2022/12/04 08:45:04;;;;;;;61.95;20.60;;;;;;;;;;6211372;23;20055;-91
2022/12/04 08:47:32;;;;;;;66.30;20.75;;;;;;;;;;6212559;23;20001;-91
2022/12/04 08:50:01;;;;;;;52.78;20.58;;;;;;;;;;6210464;23;20453;-91
2022/12/04 08:52:29;;;;;;;55.28;21.63;;;;;;;;;;6211790;23;20022;-92
2022/12/04 08:54:55;;;;;;;59.28;21.50;;;;;;;;;;6211140;23;20000;-92
2022/12/04 08:57:21;;;;;;;64.60;24.05;;;;;;;;;;6211305;23;20019;-92
2022/12/04 08:59:49;;;;;;;59.42;20.63;;;;;;;;;;6210626;23;20096;-92
2022/12/04 09:02:17;;;;;;;57.55;21.92;;;;;;;;;;6212505;23;20000;-92
2022/12/04 09:04:46;;;;;;;59.88;21.27;;;;;;;;;;6210391;23;20011;-92
2022/12/04 09:07:12;;;;;;;55.78;20.08;;;;;;;;;;6212539;23;20065;-92
2022/12/04 09:09:38;;;;;;;56.13;20.60;;;;;;;;;;6210835;23;20318;-91
2022/12/04 09:12:04;;;;;;;56.30;19.73;;;;;;;;;;6212304;23;20448;-92
2022/12/04 09:14:30;;;;;;;39.53;15.27;;;;;;;;;;6210393;23;20013;-91
2022/12/04 09:16:56;;;;;;;51.63;20.33;;;;;;;;;;6239468;23;20008;-92
2022/12/04 09:19:23;;;;;;;55.13;19.95;;;;;;;;;;6211152;23;20449;-92
2022/12/04 09:21:49;;;;;;;51.83;19.70;;;;;;;;;;6214423;23;20380;-92
2022/12/04 09:24:15;;;;;;;47.47;17.15;;;;;;;;;;6213291;23;20345;-92
2022/12/04 09:26:41;;;;;;;41.72;14.95;;;;;;;;;;6213350;23;20421;-92
2022/12/04 09:29:11;;;;;;;38.88;14.85;;;;;;;;;;6213086;22;20252;-92
2022/12/04 09:31:43;;;;;;;48.95;19.05;;;;;;;;;;6213230;23;20457;-92
2022/12/04 09:34:09;;;;;;;40.95;14.02;;;;;;;;;;6213911;23;20016;-92
2022/12/04 09:36:36;;;;;;;44.78;16.58;;;;;;;;;;6211843;23;20078;-92
2022/12/04 09:39:02;;;;;;;42.92;15.55;;;;;;;;;;6213497;23;20447;-92
2022/12/04 09:41:47;;;;;;;43.70;16.02;;;;;;;;;;6212461;23;20380;-92
2022/12/04 09:44:18;;;;;;;45.33;14.98;;;;;;;;;;6212496;23;20012;-92
2022/12/04 09:46:52;;;;;;;38.10;14.77;;;;;;;;;;6212326;23;20012;-92
2022/12/04 09:49:23;;;;;;;42.90;17.17;;;;;;;;;;6212603;23;20051;-91
2022/12/04 09:51:50;;;;;;;39.20;15.82;;;;;;;;;;6213149;23;20012;-92
2022/12/04 09:54:21;;;;;;;37.70;15.05;;;;;;;;;;6211605;23;20012;-92
2022/12/04 09:57:16;;;;;;;36.08;13.07;;;;;;;;;;6213833;23;20034;-92
2022/12/04 09:59:43;;;;;;;28.25;12.07;;;;;;;;;;6170633;23;20036;-92
2022/12/04 10:02:09;;;;;;;44.63;14.10;;;;;;;;;;6211794;23;20016;-91
2022/12/04 10:04:35;;;;;;;43.65;16.42;;;;;;;;;;6212872;23;20091;-92
2022/12/04 10:07:09;;;;;;;28.52;12.82;;;;;;;;;;6213774;23;20019;-92
2022/12/04 10:09:42;;;;;;;39.58;15.57;;;;;;;;;;6213362;23;20083;-92
2022/12/04 10:12:46;;;;;;;50.92;15.43;;;;;;;;;;6211830;23;20352;-92
2022/12/04 10:15:15;;;;;;;42.03;15.32;;;;;;;;;;6116439;23;20037;-91
2022/12/04 10:17:47;;;;;;;35.65;13.95;;;;;;;;;;6117690;23;20511;-92
2022/12/04 10:20:22;;;;;;;41.17;15.18;;;;;;;;;;6179993;23;20001;-92
2022/12/04 10:23:03;;;;;;;40.30;17.05;;;;;;;;;;6212391;23;20032;-91
2022/12/04 10:25:34;;;;;;;43.05;15.43;;;;;;;;;;6212374;23;20004;-92
2022/12/04 10:28:00;;;;;;;41.70;15.23;;;;;;;;;;6212486;23;20414;-91
2022/12/04 10:30:41;;;;;;;37.60;15.18;;;;;;;;;;6212077;22;20019;-92
2022/12/04 10:33:19;;;;;;;38.75;15.85;;;;;;;;;;6212498;23;20012;-92
2022/12/04 10:35:51;;;;;;;34.03;14.20;;;;;;;;;;6212574;23;20381;-92
2022/12/04 10:38:35;;;;;;;34.00;13.27;;;;;;;;;;6211212;23;20018;-92
2022/12/04 10:41:19;;;;;;;37.53;12.07;;;;;;;;;;6211386;23;20588;-92
2022/12/04 10:43:46;;;;;;;38.10;14.15;;;;;;;;;;6212485;23;20000;-92
2022/12/04 10:46:21;;;;;;;29.77;12.10;;;;;;;;;;6211850;23;20499;-92
2022/12/04 10:48:52;;;;;;;33.90;12.85;;;;;;;;;;6212913;23;20008;-91
2022/12/04 10:51:20;;;;;;;33.20;13.38;;;;;;;;;;6210877;23;20012;-92
2022/12/04 10:54:07;;;;;;;28.92;11.70;;;;;;;;;;6212085;23;20332;-92
2022/12/04 10:56:35;;;;;;;22.90;9.25;;;;;;;;;;6237611;23;20341;-92
2022/12/04 10:59:03;;;;;;;27.73;11.80;;;;;;;;;;6210214;23;20069;-92
2022/12/04 11:01:36;;;;;;;31.48;12.00;;;;;;;;;;6212389;23;20091;-92
2022/12/04 11:04:03;;;;;;;25.77;11.10;;;;;;;;;;6211148;23;20004;-92
2022/12/04 11:06:30;;;;;;;19.25;7.93;;;;;;;;;;6212296;23;20004;-92
2022/12/04 11:08:56;;;;;;;33.38;12.90;;;;;;;;;;6212246;23;20467;-92
2022/12/04 11:11:38;;;;;;;24.95;9.65;;;;;;;;;;6211574;23;20434;-91
2022/12/04 11:14:16;;;;;;;21.90;9.30;;;;;;;;;;6210612;23;20012;-92
2022/12/04 11:16:43;;;;;;;22.27;9.32;;;;;;;;;;6212830;23;20012;-91
2022/12/04 11:19:19;;;;;;;28.20;10.85;;;;;;;;;;6211642;23;20008;-92
2022/12/04 11:21:46;;;;;;;26.50;10.10;;;;;;;;;;6213736;23;20328;-91
2022/12/04 11:24:24;;;;;;;26.83;10.82;;;;;;;;;;6211511;23;20091;-92
2022/12/04 11:26:51;;;;;;;21.35;9.27;;;;;;;;;;6212057;23;20050;-91
2022/12/04 11:29:19;;;;;;;23.92;10.10;;;;;;;;;;6212776;23;20012;-91
2022/12/04 11:31:49;;;;;;;30.52;12.15;;;;;;;;;;6212979;22;20016;-92
2022/12/04 11:34:21;;;;;;;25.33;10.77;;;;;;;;;;6212206;23;20018;-91
2022/12/04 11:36:51;;;;;;;29.02;11.82;;;;;;;;;;6211788;23;20137;-92
2022/12/04 11:39:41;;;;;;;28.83;11.50;;;;;;;;;;6211430;23;20012;-91
2022/12/04 11:42:15;;;;;;;25.63;10.88;;;;;;;;;;6211703;23;20015;-92
2022/12/04 11:44:49;;;;;;;26.83;9.65;;;;;;;;;;6211623;23;20027;-92
2022/12/04 11:47:22;;;;;;;28.08;10.82;;;;;;;;;;6212383;23;20329;-92
2022/12/04 11:50:10;;;;;;;30.92;12.52;;;;;;;;;;6211449;23;20019;-91
2022/12/04 11:53:01;;;;;;;22.33;9.27;;;;;;;;;;6211408;23;20008;-92
2022/12/04 11:55:39;;;;;;;33.92;13.05;;;;;;;;;;6212304;23;20425;-92
2022/12/04 11:58:05;;;;;;;29.95;12.95;;;;;;;;;;6211829;23;20452;-92
2022/12/04 12:00:32;;;;;;;34.75;13.45;;;;;;;;;;6211756;23;20046;-92
2022/12/04 12:02:58;;;;;;;32.88;11.93;;;;;;;;;;6211861;23;20498;-92
2022/12/04 12:05:43;;;;;;;28.52;11.38;;;;;;;;;;6211997;23;20062;-92
2022/12/04 12:08:12;;;;;;;35.65;13.02;;;;;;;;;;6211818;23;20087;-92
2022/12/04 12:10:48;;;;;;;21.65;10.00;;;;;;;;;;6210930;23;20012;-91
2022/12/04 12:13:29;;;;;;;30.23;12.52;;;;;;;;;;6211831;23;20019;-92
2022/12/04 12:15:55;;;;;;;35.75;14.27;;;;;;;;;;6210850;23;20008;-92
2022/12/04 12:18:39;;;;;;;35.10;13.98;;;;;;;;;;6211965;23;20448;-91
2022/12/04 12:21:12;;;;;;;31.52;12.85;;;;;;;;;;6211463;23;20037;-92
2022/12/04 12:23:47;;;;;;;32.85;13.20;;;;;;;;;;6212330;23;20023;-91
2022/12/04 12:26:17;;;;;;;30.88;12.68;;;;;;;;;;6212044;23;20008;-91
2022/12/04 12:29:09;;;;;;;32.08;12.75;;;;;;;;;;6210667;23;20011;-91
2022/12/04 12:31:36;;;;;;;26.95;11.95;;;;;;;;;;6212427;22;20073;-91
2022/12/04 12:34:05;;;;;;;40.72;13.88;;;;;;;;;;6211820;23;20037;-92
2022/12/04 12:36:35;;;;;;;32.83;13.25;;;;;;;;;;6211472;23;20012;-92
2022/12/04 12:39:08;;;;;;;32.78;13.10;;;;;;;;;;6211328;23;20317;-92
2022/12/04 12:41:48;;;;;;;30.05;11.85;;;;;;;;;;6211483;23;20011;-91
2022/12/04 12:44:33;;;;;;;30.33;12.63;;;;;;;;;;6218008;23;20334;-91
2022/12/04 12:47:12;;;;;;;33.85;13.93;;;;;;;;;;6211714;23;20028;-92
2022/12/04 12:49:59;;;;;;;26.10;10.70;;;;;;;;;;6210827;23;20008;-91
2022/12/04 12:52:34;;;;;;;36.50;14.50;;;;;;;;;;6212861;23;20094;-92
2022/12/04 12:55:13;;;;;;;28.08;12.43;;;;;;;;;;6214503;23;20028;-92
2022/12/04 12:57:52;;;;;;;33.08;13.88;;;;;;;;;;6212318;23;20383;-92
2022/12/04 13:00:22;;;;;;;31.27;12.95;;;;;;;;;;6213015;23;20050;-92
2022/12/04 13:02:57;;;;;;;37.95;13.55;;;;;;;;;;6212851;23;20471;-92
2022/12/04 13:05:30;;;;;;;27.13;12.23;;;;;;;;;;6212796;23;20015;-92
2022/12/04 13:08:15;;;;;;;29.08;13.45;;;;;;;;;;6213587;23;20030;-92
2022/12/04 13:10:43;;;;;;;35.92;13.90;;;;;;;;;;6212944;23;20036;-91
2022/12/04 13:13:09;;;;;;;27.83;10.68;;;;;;;;;;6212449;23;20004;-92
2022/12/04 13:15:48;;;;;;;33.55;13.73;;;;;;;;;;6213260;23;20352;-91
2022/12/04 13:18:40;;;;;;;35.83;13.07;;;;;;;;;;6211582;23;20489;-91
2022/12/04 13:21:08;;;;;;;32.63;11.93;;;;;;;;;;6208359;23;20428;-92
2022/12/04 13:23:49;;;;;;;33.85;13.43;;;;;;;;;;6212572;23;20033;-92
2022/12/04 13:26:15;;;;;;;41.03;14.85;;;;;;;;;;6213775;23;20410;-92
2022/12/04 13:29:07;;;;;;;39.28;14.30;;;;;;;;;;6212919;23;20015;-91
2022/12/04 13:31:50;;;;;;;44.22;15.82;;;;;;;;;;6212880;22;20050;-92
2022/12/04 13:34:33;;;;;;;40.47;15.63;;;;;;;;;;6212734;23;20035;-91
2022/12/04 13:37:23;;;;;;;36.85;14.68;;;;;;;;;;6212956;23;20008;-92
2022/12/04 13:40:07;;;;;;;38.63;15.07;;;;;;;;;;6212813;23;20613;-92
2022/12/04 13:42:33;;;;;;;38.10;15.88;;;;;;;;;;6212774;23;20004;-91
2022/12/04 13:45:10;;;;;;;33.63;14.20;;;;;;;;;;6213327;23;20004;-92
2022/12/04 13:47:36;;;;;;;36.72;14.85;;;;;;;;;;6213427;23;20013;-91
2022/12/04 13:50:27;;;;;;;39.90;14.65;;;;;;;;;;6212499;23;20015;-92
2022/12/04 13:52:56;;;;;;;33.45;13.23;;;;;;;;;;6213427;23;20008;-91
2022/12/04 13:55:27;;;;;;;51.05;16.55;;;;;;;;;;6214432;23;20027;-92
2022/12/04 13:58:13;;;;;;;41.40;15.23;;;;;;;;;;6211159;23;20008;-92
2022/12/04 14:00:41;;;;;;;30.67;12.48;;;;;;;;;;6235378;23;20004;-92
2022/12/04 14:03:26;;;;;;;27.90;11.02;;;;;;;;;;6213735;23;20005;-92
2022/12/04 14:05:52;;;;;;;44.25;15.20;;;;;;;;;;6211429;23;20424;-91
2022/12/04 14:08:18;;;;;;;25.20;11.23;;;;;;;;;;6213045;23;20335;-92
2022/12/04 14:10:46;;;;;;;46.10;14.80;;;;;;;;;;6212646;23;20035;-92
2022/12/04 14:13:12;;;;;;;41.53;14.55;;;;;;;;;;6211842;23;20008;-91
2022/12/04 14:15:49;;;;;;;;;;;;;;;;;;;;;
2022/12/04 14:18:21;;;;;;;44.20;17.02;;;;;;;;;;6239824;23;20014;-92
2022/12/04 14:20:56;;;;;;;40.60;13.95;;;;;;;;;;6211195;23;20026;-91
2022/12/04 14:23:33;;;;;;;41.30;16.65;;;;;;;;;;6213401;23;20486;-92
2022/12/04 14:26:01;;;;;;;44.63;17.48;;;;;;;;;;6212964;23;20008;-92
2022/12/04 14:28:31;;;;;;;44.35;15.90;;;;;;;;;;6212210;23;20539;-93
2022/12/04 14:31:13;;;;;;;34.63;13.13;;;;;;;;;;6213424;22;20352;-92
2022/12/04 14:33:42;;;;;;;26.13;10.90;;;;;;;;;;6212778;23;20345;-92
2022/12/04 14:36:17;;;;;;;28.83;8.10;;;;;;;;;;6212037;23;20012;-92
2022/12/04 14:38:54;;;;;;;21.05;8.85;;;;;;;;;;6213007;23;20004;-92
2022/12/04 14:41:24;;;;;;;23.15;7.90;;;;;;;;;;6212513;23;20062;-92
2022/12/04 14:43:53;;;;;;;21.02;7.85;;;;;;;;;;6212420;23;20004;-92
2022/12/04 14:46:31;;;;;;;26.80;10.73;;;;;;;;;;6212495;23;20447;-91
2022/12/04 14:49:15;;;;;;;27.10;11.65;;;;;;;;;;6212772;23;20011;-92
2022/12/04 14:51:48;;;;;;;22.20;9.15;;;;;;;;;;6213813;23;20019;-92
2022/12/04 14:54:33;;;;;;;34.03;12.90;;;;;;;;;;6211766;23;20008;-92
2022/12/04 14:57:20;;;;;;;36.38;12.20;;;;;;;;;;6212075;23;20043;-92
2022/12/04 15:00:04;;;;;;;33.53;14.20;;;;;;;;;;6211644;23;20012;-92
2022/12/04 15:02:30;;;;;;;30.70;12.70;;;;;;;;;;6212278;23;20010;-91
2022/12/04 15:04:56;;;;;;;40.92;14.10;;;;;;;;;;6213110;23;20015;-92